createdAt,value
2023-06-20T00:00:28.529Z,21.10
2023-06-20T00:03:35.076Z,23.60
2023-06-20T00:06:23.603Z,22.20
2023-06-20T00:09:10.542Z,20.80
2023-06-20T00:11:57.259Z,19.70
2023-06-20T00:14:43.580Z,19.20
2023-06-20T00:17:30.170Z,24.10
2023-06-20T00:20:16.793Z,19.80
2023-06-20T00:23:03.543Z,19.00
2023-06-20T00:25:50.065Z,19.90
2023-06-20T00:28:36.725Z,19.00
2023-06-20T00:31:23.395Z,20.30
2023-06-20T00:34:10.331Z,20.90
2023-06-20T00:36:57.185Z,21.60
2023-06-20T00:39:43.925Z,23.00
2023-06-20T00:42:30.316Z,19.30
2023-06-20T00:45:29.287Z,26.30
2023-06-20T00:48:17.490Z,24.20
2023-06-20T00:51:04.341Z,21.70
2023-06-20T00:53:51.640Z,21.30
2023-06-20T00:56:38.553Z,23.20
2023-06-20T00:59:25.235Z,20.80
2023-06-20T01:02:15.259Z,19.90
2023-06-20T01:05:03.700Z,21.50
2023-06-20T01:07:59.385Z,23.30
2023-06-20T01:11:04.408Z,28.50
2023-06-20T01:14:04.578Z,30.70
2023-06-20T01:17:17.491Z,25.40
2023-06-20T01:20:17.580Z,24.40
2023-06-20T01:23:09.648Z,24.70
2023-06-20T01:26:41.998Z,25.00
2023-06-20T01:29:41.029Z,24.60
2023-06-20T01:32:30.019Z,25.30
2023-06-20T01:35:22.618Z,19.90
2023-06-20T01:38:12.125Z,24.60
2023-06-20T01:41:01.051Z,24.70
2023-06-20T01:43:51.126Z,28.60
2023-06-20T01:46:37.767Z,22.60
2023-06-20T01:49:26.994Z,26.20
2023-06-20T01:52:15.852Z,21.90
2023-06-20T01:55:07.203Z,22.10
2023-06-20T01:57:56.351Z,24.50
2023-06-20T02:00:44.408Z,24.80
2023-06-20T02:03:33.091Z,29.00
2023-06-20T02:06:21.363Z,22.10
2023-06-20T02:09:08.630Z,21.80
2023-06-20T02:11:56.352Z,23.00
2023-06-20T02:14:45.104Z,22.30
2023-06-20T02:17:34.226Z,25.00
2023-06-20T02:20:21.451Z,27.50
2023-06-20T02:23:11.239Z,32.50
2023-06-20T02:26:11.157Z,24.90
2023-06-20T02:29:05.226Z,28.90
2023-06-20T02:31:52.841Z,21.90
2023-06-20T02:34:44.476Z,23.00
2023-06-20T02:37:34.622Z,24.50
2023-06-20T02:40:24.879Z,22.70
2023-06-20T02:43:12.285Z,26.40
2023-06-20T02:46:24.316Z,25.20
2023-06-20T02:49:40.867Z,26.60
2023-06-20T02:52:45.867Z,28.40
2023-06-20T02:55:58.532Z,30.40
2023-06-20T02:58:52.417Z,23.10
2023-06-20T03:01:41.992Z,27.20
2023-06-20T03:04:33.541Z,28.80
2023-06-20T03:07:21.241Z,25.50
2023-06-20T03:10:09.806Z,33.40
2023-06-20T03:12:57.406Z,28.20
2023-06-20T03:15:44.540Z,28.40
2023-06-20T03:18:31.443Z,24.30
2023-06-20T03:24:09.422Z,25.20
2023-06-20T03:29:44.654Z,24.90
2023-06-20T03:32:31.541Z,28.50
2023-06-20T03:35:18.431Z,29.10
2023-06-20T03:38:05.344Z,28.10
2023-06-20T03:40:53.126Z,28.00
2023-06-20T03:43:39.475Z,25.60
2023-06-20T03:46:26.250Z,26.00
2023-06-20T03:49:12.867Z,25.20
2023-06-20T03:52:00.328Z,27.10
2023-06-20T03:54:46.750Z,31.80
2023-06-20T03:57:34.159Z,30.70
2023-06-20T04:00:20.923Z,25.00
2023-06-20T04:03:07.658Z,27.40
2023-06-20T04:05:54.374Z,27.60
2023-06-20T04:08:41.302Z,28.40
2023-06-20T04:11:27.825Z,27.90
2023-06-20T04:14:14.585Z,27.50
2023-06-20T04:17:01.202Z,29.60
2023-06-20T04:19:48.448Z,30.70
2023-06-20T04:22:35.144Z,29.40
2023-06-20T04:25:21.439Z,28.30
2023-06-20T04:28:09.338Z,28.40
2023-06-20T04:31:07.553Z,25.40
2023-06-20T04:33:55.830Z,28.30
2023-06-20T04:36:42.220Z,25.60
2023-06-20T04:39:31.242Z,26.60
2023-06-20T04:42:18.309Z,20.70
2023-06-20T04:45:06.929Z,23.60
2023-06-20T04:47:53.424Z,23.40
2023-06-20T04:50:39.761Z,24.30
2023-06-20T04:53:27.266Z,20.80
2023-06-20T04:56:17.101Z,23.90
2023-06-20T04:59:03.855Z,23.50
2023-06-20T05:01:52.597Z,21.20
2023-06-20T05:04:39.517Z,22.60
2023-06-20T05:07:26.140Z,22.90
2023-06-20T05:10:12.740Z,19.70
2023-06-20T05:12:59.241Z,20.30
2023-06-20T05:15:45.633Z,20.30
2023-06-20T05:18:32.877Z,21.00
2023-06-20T05:21:19.511Z,17.50
2023-06-20T05:24:06.005Z,19.60
2023-06-20T05:26:52.816Z,16.30
2023-06-20T05:29:39.374Z,18.60
2023-06-20T05:32:26.052Z,19.60
2023-06-20T05:35:13.117Z,19.20
2023-06-20T05:38:01.189Z,20.80
2023-06-20T05:40:47.458Z,17.70
2023-06-20T05:43:34.537Z,19.40
2023-06-20T05:46:21.294Z,16.60
2023-06-20T05:49:11.342Z,19.50
2023-06-20T05:52:01.008Z,17.60
2023-06-20T05:54:47.415Z,18.30
2023-06-20T05:57:34.081Z,19.30
2023-06-20T06:00:20.727Z,17.20
2023-06-20T06:03:07.619Z,16.80
2023-06-20T06:05:54.481Z,18.30
2023-06-20T06:08:42.057Z,18.30
2023-06-20T06:11:28.537Z,15.90
2023-06-20T06:14:14.865Z,17.40
2023-06-20T06:17:01.338Z,14.80
2023-06-20T06:19:47.821Z,14.50
2023-06-20T06:22:34.434Z,15.20
2023-06-20T06:25:20.909Z,14.70
2023-06-20T06:28:07.731Z,16.90
2023-06-20T06:31:01.761Z,14.10
2023-06-20T06:33:48.588Z,14.70
2023-06-20T06:36:35.620Z,13.60
2023-06-20T06:39:25.605Z,13.70
2023-06-20T06:42:12.102Z,13.10
2023-06-20T06:44:59.307Z,12.60
2023-06-20T06:47:45.939Z,11.20
2023-06-20T06:50:32.639Z,11.80
2023-06-20T06:53:19.195Z,11.20
2023-06-20T06:56:05.703Z,9.40
2023-06-20T06:58:54.595Z,9.80
2023-06-20T07:01:41.059Z,10.00
2023-06-20T07:04:27.808Z,10.00
2023-06-20T07:07:14.564Z,10.90
2023-06-20T07:10:01.459Z,10.20
2023-06-20T07:12:48.095Z,9.80
2023-06-20T07:15:34.662Z,9.60
2023-06-20T07:18:21.132Z,9.80
2023-06-20T07:21:07.431Z,9.50
2023-06-20T07:23:54.118Z,9.20
2023-06-20T07:26:40.913Z,12.30
2023-06-20T07:29:27.790Z,8.70
2023-06-20T07:32:15.675Z,10.50
2023-06-20T07:35:02.198Z,9.50
2023-06-20T07:37:48.465Z,10.00
2023-06-20T07:40:34.958Z,9.30
2023-06-20T07:43:28.165Z,9.10
2023-06-20T07:46:15.154Z,10.20
2023-06-20T07:49:01.697Z,8.60
2023-06-20T07:51:48.310Z,9.60
2023-06-20T07:54:34.772Z,9.60
2023-06-20T07:57:21.309Z,9.70
2023-06-20T08:00:12.530Z,8.40
2023-06-20T08:02:59.318Z,10.90
2023-06-20T08:05:46.040Z,8.90
2023-06-20T08:08:32.790Z,8.90
2023-06-20T08:11:23.534Z,7.60
2023-06-20T08:14:10.099Z,8.50
2023-06-20T08:16:56.799Z,8.50
2023-06-20T08:19:43.200Z,10.30
2023-06-20T08:22:30.640Z,8.40
2023-06-20T08:28:14.404Z,7.50
2023-06-20T08:31:03.721Z,7.80
2023-06-20T08:33:50.515Z,7.50
2023-06-20T08:36:37.825Z,10.40
2023-06-20T08:39:24.491Z,9.30
2023-06-20T08:42:11.709Z,8.60
2023-06-20T08:44:59.885Z,8.20
2023-06-20T08:47:46.290Z,7.70
2023-06-20T08:50:33.844Z,7.00
2023-06-20T08:53:23.855Z,7.30
2023-06-20T08:56:11.142Z,7.20
2023-06-20T08:58:57.709Z,7.00
2023-06-20T09:01:44.566Z,7.70
2023-06-20T09:04:31.142Z,7.20
2023-06-20T09:07:19.814Z,7.50
2023-06-20T09:10:07.600Z,7.50
2023-06-20T09:12:57.786Z,7.10
2023-06-20T09:15:44.671Z,8.30
2023-06-20T09:18:32.256Z,8.00
2023-06-20T09:21:18.817Z,8.40
2023-06-20T09:24:07.011Z,7.50
2023-06-20T09:26:53.594Z,8.90
2023-06-20T09:29:53.482Z,8.00
2023-06-20T09:32:42.148Z,8.40
2023-06-20T09:35:31.458Z,7.10
2023-06-20T09:38:17.699Z,8.70
2023-06-20T09:41:08.022Z,7.00
2023-06-20T09:43:54.538Z,8.70
2023-06-20T09:46:41.298Z,8.60
2023-06-20T09:49:30.589Z,7.30
2023-06-20T09:52:18.621Z,7.20
2023-06-20T09:55:10.981Z,8.50
2023-06-20T09:57:59.671Z,7.40
2023-06-20T10:00:46.761Z,8.60
2023-06-20T10:03:35.729Z,7.90
2023-06-20T10:06:23.262Z,7.20
2023-06-20T10:09:11.100Z,7.80
2023-06-20T10:11:57.963Z,8.20
2023-06-20T10:14:44.722Z,7.90
2023-06-20T10:17:33.050Z,7.70
2023-06-20T10:20:33.194Z,7.30
2023-06-20T10:23:21.541Z,8.00
2023-06-20T10:26:09.686Z,7.50
2023-06-20T10:28:57.850Z,7.60
2023-06-20T10:32:07.504Z,9.10
2023-06-20T10:34:54.121Z,8.40
2023-06-20T10:37:40.814Z,8.30
2023-06-20T10:40:31.045Z,8.20
2023-06-20T10:43:19.310Z,7.50
2023-06-20T10:46:05.854Z,8.00
2023-06-20T10:48:52.582Z,7.50
2023-06-20T10:51:49.286Z,8.00
2023-06-20T10:54:35.760Z,7.10
2023-06-20T10:57:23.466Z,8.00
2023-06-20T11:00:14.473Z,12.40
2023-06-20T11:03:01.481Z,7.60
2023-06-20T11:05:53.009Z,7.70
2023-06-20T11:08:44.456Z,7.10
2023-06-20T11:11:40.958Z,6.80
2023-06-20T11:14:27.708Z,7.20
2023-06-20T11:17:14.171Z,7.00
2023-06-20T11:20:01.698Z,6.60
2023-06-20T11:22:49.488Z,8.50
2023-06-20T11:25:38.201Z,7.00
2023-06-20T11:28:24.564Z,8.50
2023-06-20T11:31:12.182Z,8.70
2023-06-20T11:34:11.084Z,7.90
2023-06-20T11:36:58.085Z,8.20
2023-06-20T11:39:48.063Z,8.80
2023-06-20T11:42:35.533Z,8.50
2023-06-20T11:45:27.258Z,8.10
2023-06-20T11:48:16.209Z,7.90
2023-06-20T11:54:01.903Z,9.00
2023-06-20T11:56:52.138Z,7.80
2023-06-20T11:59:38.465Z,7.60
2023-06-20T12:02:28.376Z,8.50
2023-06-20T12:05:16.551Z,8.70
2023-06-20T12:08:03.081Z,8.50
2023-06-20T12:11:01.285Z,7.80
2023-06-20T12:13:49.256Z,7.70
2023-06-20T12:16:35.910Z,8.10
2023-06-20T12:19:22.923Z,7.40
2023-06-20T12:22:09.556Z,9.00
2023-06-20T12:24:55.953Z,9.50
2023-06-20T12:27:43.101Z,8.10
2023-06-20T12:30:31.980Z,8.60
2023-06-20T12:33:19.594Z,7.90
2023-06-20T12:36:06.547Z,7.20
2023-06-20T12:38:53.185Z,7.20
2023-06-20T12:41:39.830Z,8.30
2023-06-20T12:44:26.218Z,7.10
2023-06-20T12:47:13.424Z,8.10
2023-06-20T12:50:03.849Z,8.30
2023-06-20T12:52:50.507Z,8.00
2023-06-20T12:55:37.313Z,7.30
2023-06-20T12:58:24.198Z,8.90
2023-06-20T13:01:10.539Z,8.20
2023-06-20T13:03:57.793Z,7.80
2023-06-20T13:06:44.811Z,8.60
2023-06-20T13:09:32.232Z,7.40
2023-06-20T13:12:18.975Z,6.80
2023-06-20T13:15:07.879Z,7.90
2023-06-20T13:17:57.513Z,7.00
2023-06-20T13:20:44.467Z,8.50
2023-06-20T13:23:31.164Z,7.90
2023-06-20T13:26:19.257Z,7.00
2023-06-20T13:29:05.983Z,7.50
2023-06-20T13:31:52.252Z,7.40
2023-06-20T13:34:38.770Z,7.20
2023-06-20T13:37:26.145Z,6.90
2023-06-20T13:40:13.696Z,8.00
2023-06-20T13:43:03.820Z,6.90
2023-06-20T13:45:51.033Z,6.70
2023-06-20T13:48:37.657Z,7.60
2023-06-20T13:51:24.002Z,6.20
2023-06-20T13:54:12.464Z,6.80
2023-06-20T13:56:58.904Z,6.80
2023-06-20T13:59:45.723Z,7.70
2023-06-20T14:02:32.387Z,7.70
2023-06-20T14:05:21.206Z,7.80
2023-06-20T14:08:08.132Z,6.50
2023-06-20T14:10:54.700Z,7.10
2023-06-20T14:13:41.439Z,7.90
2023-06-20T14:16:28.507Z,8.10
2023-06-20T14:19:14.844Z,8.00
2023-06-20T14:22:01.746Z,7.90
2023-06-20T14:24:48.616Z,7.60
2023-06-20T14:27:35.045Z,6.90
2023-06-20T14:30:21.810Z,7.00
2023-06-20T14:33:08.286Z,6.70
2023-06-20T14:35:54.971Z,6.70
2023-06-20T14:38:42.405Z,8.80
2023-06-20T14:41:29.200Z,6.70
2023-06-20T14:44:16.084Z,7.00
2023-06-20T14:47:02.750Z,7.70
2023-06-20T14:49:49.531Z,7.90
2023-06-20T14:52:36.130Z,7.80
2023-06-20T14:55:22.404Z,7.50
2023-06-20T14:58:09.837Z,7.30
2023-06-20T15:00:58.024Z,7.30
2023-06-20T15:03:45.717Z,7.60
2023-06-20T15:06:32.598Z,8.40
2023-06-20T15:09:19.187Z,8.00
2023-06-20T15:12:06.320Z,8.10
2023-06-20T15:14:52.808Z,7.30
2023-06-20T15:17:39.573Z,8.00
2023-06-20T15:20:26.913Z,9.30
2023-06-20T15:23:13.901Z,8.10
2023-06-20T15:26:00.537Z,7.90
2023-06-20T15:28:46.771Z,8.10
2023-06-20T15:31:33.338Z,7.20
2023-06-20T15:34:19.949Z,7.40
2023-06-20T15:37:06.773Z,9.20
2023-06-20T15:39:53.930Z,8.40
2023-06-20T15:42:40.714Z,9.00
2023-06-20T15:45:27.052Z,7.60
2023-06-20T15:48:14.523Z,8.00
2023-06-20T15:51:01.224Z,8.90
2023-06-20T15:53:47.927Z,9.80
2023-06-20T15:56:34.237Z,8.20
2023-06-20T15:59:21.016Z,7.90
2023-06-20T16:02:13.610Z,8.20
2023-06-20T16:05:00.216Z,7.80
2023-06-20T16:07:46.578Z,7.20
2023-06-20T16:10:33.368Z,7.80
2023-06-20T16:13:19.479Z,7.50
2023-06-20T16:16:06.664Z,7.60
2023-06-20T16:18:53.716Z,8.20
2023-06-20T16:21:41.152Z,7.70
2023-06-20T16:24:27.823Z,7.80
2023-06-20T16:27:14.685Z,7.60
2023-06-20T16:30:02.242Z,8.60
2023-06-20T16:32:48.871Z,7.10
2023-06-20T16:35:35.665Z,7.10
2023-06-20T16:38:25.804Z,8.00
2023-06-20T16:41:12.625Z,7.60
2023-06-20T16:43:59.117Z,8.20
2023-06-20T16:46:45.669Z,7.20
2023-06-20T16:49:35.349Z,8.70
2023-06-20T16:52:22.246Z,6.80
2023-06-20T16:55:08.923Z,6.90
2023-06-20T16:57:55.415Z,6.60
2023-06-20T17:00:41.618Z,7.10
2023-06-20T17:03:28.096Z,14.30
2023-06-20T17:06:14.805Z,7.60
2023-06-20T17:09:01.481Z,7.60
2023-06-20T17:11:51.539Z,7.50
2023-06-20T17:14:38.236Z,7.70
2023-06-20T17:17:25.616Z,8.30
2023-06-20T17:20:12.217Z,8.10
2023-06-20T17:22:59.068Z,7.30
2023-06-20T17:25:46.160Z,7.90
2023-06-20T17:28:32.395Z,7.70
2023-06-20T17:31:19.164Z,8.80
2023-06-20T17:34:05.843Z,7.00
2023-06-20T17:36:52.491Z,7.70
2023-06-20T17:39:39.274Z,7.20
2023-06-20T17:42:25.869Z,8.00
2023-06-20T17:45:12.849Z,8.50
2023-06-20T17:48:00.618Z,7.70
2023-06-20T17:50:47.412Z,7.80
2023-06-20T17:53:33.934Z,7.90
2023-06-20T17:56:20.715Z,9.50
2023-06-20T17:59:07.198Z,8.40
2023-06-20T18:01:55.873Z,10.20
2023-06-20T18:04:42.909Z,8.70
2023-06-20T18:07:29.498Z,8.70
2023-06-20T18:10:18.353Z,9.40
2023-06-20T18:13:04.908Z,11.60
2023-06-20T18:15:51.860Z,10.50
2023-06-20T18:18:40.249Z,12.00
2023-06-20T18:21:28.279Z,9.90
2023-06-20T18:24:15.066Z,10.50
2023-06-20T18:27:01.577Z,10.50
2023-06-20T18:29:48.234Z,11.00
2023-06-20T18:32:34.930Z,11.60
2023-06-20T18:35:21.465Z,10.00
2023-06-20T18:38:08.749Z,10.20
2023-06-20T18:40:55.562Z,10.10
2023-06-20T18:43:42.861Z,11.80
2023-06-20T18:46:31.420Z,12.10
2023-06-20T18:49:17.950Z,9.70
2023-06-20T18:52:05.179Z,9.70
2023-06-20T18:55:07.910Z,10.50
2023-06-20T18:57:54.479Z,9.30
2023-06-20T19:00:40.817Z,10.90
2023-06-20T19:03:27.431Z,10.70
2023-06-20T19:06:13.955Z,10.60
2023-06-20T19:09:00.624Z,10.40
2023-06-20T19:11:47.250Z,9.80
2023-06-20T19:14:35.015Z,10.40
2023-06-20T19:17:24.954Z,11.20
2023-06-20T19:20:13.049Z,10.80
2023-06-20T19:22:59.733Z,10.40
2023-06-20T19:25:46.354Z,11.10
2023-06-20T19:28:32.943Z,10.30
2023-06-20T19:31:20.119Z,10.50
2023-06-20T19:34:10.698Z,11.60
2023-06-20T19:36:57.382Z,11.30
2023-06-20T19:39:43.762Z,12.80
2023-06-20T19:42:30.874Z,12.50
2023-06-20T19:45:17.593Z,13.40
2023-06-20T19:48:04.249Z,13.80
2023-06-20T19:50:50.929Z,13.20
2023-06-20T19:53:37.778Z,14.20
2023-06-20T19:56:24.190Z,15.00
2023-06-20T19:59:10.740Z,16.20
2023-06-20T20:01:57.271Z,15.70
2023-06-20T20:04:43.972Z,16.40
2023-06-20T20:07:30.861Z,18.00
2023-06-20T20:10:17.282Z,18.10
2023-06-20T20:13:03.741Z,19.00
2023-06-20T20:15:50.795Z,23.80
2023-06-20T20:18:37.541Z,19.50
2023-06-20T20:21:24.411Z,19.40
2023-06-20T20:24:11.173Z,18.20
2023-06-20T20:26:57.724Z,19.00
2023-06-20T20:29:44.746Z,19.60
2023-06-20T20:32:31.409Z,18.90
2023-06-20T20:35:18.524Z,18.20
2023-06-20T20:38:07.197Z,19.40
2023-06-20T20:40:53.786Z,19.70
2023-06-20T20:43:40.978Z,20.50
2023-06-20T20:46:27.485Z,19.80
2023-06-20T20:49:14.377Z,19.50
2023-06-20T20:52:00.913Z,20.00
2023-06-20T20:54:48.018Z,20.40
2023-06-20T20:57:34.837Z,19.00
2023-06-20T21:00:21.660Z,22.10
2023-06-20T21:03:09.338Z,21.80
2023-06-20T21:05:56.111Z,22.30
2023-06-20T21:08:43.237Z,20.60
2023-06-20T21:11:29.967Z,21.70
2023-06-20T21:14:16.596Z,19.90
2023-06-20T21:17:03.605Z,19.60
2023-06-20T21:19:50.476Z,21.10
2023-06-20T21:22:37.786Z,21.30
2023-06-20T21:25:24.600Z,21.70
2023-06-20T21:28:11.649Z,20.00
2023-06-20T21:30:59.919Z,21.20
2023-06-20T21:33:46.487Z,20.30
2023-06-20T21:36:33.269Z,20.10
2023-06-20T21:39:19.680Z,18.70
2023-06-20T21:42:07.219Z,17.60
2023-06-20T21:44:53.402Z,18.40
2023-06-20T21:47:40.032Z,16.50
2023-06-20T21:50:27.031Z,16.90
2023-06-20T21:53:13.786Z,16.40
2023-06-20T21:56:00.535Z,15.00
2023-06-20T21:58:47.342Z,16.00
2023-06-20T22:01:34.010Z,14.30
2023-06-20T22:04:20.630Z,13.80
2023-06-20T22:07:08.912Z,13.20
2023-06-20T22:10:03.147Z,13.60
2023-06-20T22:15:37.877Z,13.40
2023-06-20T22:18:24.688Z,12.60
2023-06-20T22:21:11.077Z,12.90
2023-06-20T22:23:57.937Z,11.70
2023-06-20T22:26:49.792Z,12.50
2023-06-20T22:29:36.616Z,11.20
2023-06-20T22:32:23.882Z,11.50
2023-06-20T22:35:10.813Z,11.50
2023-06-20T22:37:57.418Z,11.10
2023-06-20T22:40:45.079Z,11.30
2023-06-20T22:43:32.484Z,10.70
2023-06-20T22:46:24.377Z,12.90
2023-06-20T22:49:11.744Z,10.80
2023-06-20T22:51:58.180Z,13.80
2023-06-20T22:54:45.147Z,17.20
2023-06-20T22:57:32.031Z,15.90
2023-06-20T23:00:19.570Z,16.70
2023-06-20T23:03:06.084Z,18.80
2023-06-20T23:05:52.595Z,17.70
2023-06-20T23:08:39.264Z,18.40
2023-06-20T23:11:28.185Z,17.00
2023-06-20T23:14:14.481Z,16.80
2023-06-20T23:17:01.304Z,16.30
2023-06-20T23:19:49.546Z,16.50
2023-06-20T23:22:37.644Z,17.30
2023-06-20T23:25:24.276Z,17.00
2023-06-20T23:28:11.349Z,16.00
2023-06-20T23:30:58.130Z,17.30
2023-06-20T23:33:45.181Z,17.90
2023-06-20T23:36:32.234Z,16.90
2023-06-20T23:39:18.875Z,14.70
2023-06-20T23:42:05.935Z,14.50
2023-06-20T23:44:52.329Z,16.10
2023-06-20T23:47:39.123Z,15.30
2023-06-20T23:50:25.944Z,15.30
2023-06-20T23:53:13.867Z,15.10
2023-06-20T23:56:00.472Z,16.40
2023-06-20T23:58:46.651Z,16.50
